Time;durP1;ratioP1;P1;durP2;ratioP2;P2;SDS_P1;SDS_P2;PMS_P1;PMS_P2;Temp;Humidity;BMP_temperature;BMP_pressure;BME280_temperature;BME280_humidity;BME280_pressure;Samples;Min_cycle;Max_cycle;Signal;HPM_P1;HPM_P2
2021/12/31 00:00:46;;;;;;;1.43;1.33;;;14.10;85.80;;;;;;4955790;28;21126;-47
2021/12/31 00:03:14;;;;;;;0.90;0.90;;;14.10;85.70;;;;;;4954414;28;20500;-47
2021/12/31 00:05:41;;;;;;;3.40;1.77;;;14.10;85.90;;;;;;4968213;28;20945;-46
2021/12/31 00:08:08;;;;;;;1.23;1.13;;;14.00;85.90;;;;;;4956144;28;20460;-46
2021/12/31 00:10:34;;;;;;;1.60;1.50;;;14.00;86.00;;;;;;4951085;28;20837;-51
2021/12/31 00:13:01;;;;;;;3.47;1.30;;;14.00;86.10;;;;;;4957621;28;20977;-46
2021/12/31 00:15:28;;;;;;;2.80;1.50;;;14.00;86.00;;;;;;4956196;28;20454;-47
2021/12/31 00:17:55;;;;;;;3.37;1.50;;;14.00;86.00;;;;;;4953594;28;20821;-46
2021/12/31 00:20:24;;;;;;;2.47;1.40;;;14.00;85.80;;;;;;4953622;28;20451;-47
2021/12/31 00:23:04;;;;;;;2.57;1.20;;;14.00;85.80;;;;;;4968532;28;20500;-47
2021/12/31 00:25:34;;;;;;;1.50;1.40;;;14.00;85.80;;;;;;4969206;28;20473;-46
2021/12/31 00:28:02;;;;;;;1.80;1.70;;;14.10;85.50;;;;;;4945604;28;20972;-46
2021/12/31 00:30:29;;;;;;;1.67;1.20;;;14.10;85.50;;;;;;4955650;28;20461;-45
2021/12/31 00:32:55;;;;;;;2.70;1.33;;;14.00;85.60;;;;;;4950872;28;20483;-46
2021/12/31 00:35:23;;;;;;;1.60;1.50;;;14.00;85.90;;;;;;4954879;28;20455;-46
2021/12/31 00:37:50;;;;;;;2.37;1.50;;;13.90;86.10;;;;;;4952994;28;20469;-46
2021/12/31 00:40:18;;;;;;;1.70;1.60;;;13.90;86.20;;;;;;4951539;28;20459;-46
2021/12/31 00:42:46;;;;;;;2.10;1.90;;;13.90;86.20;;;;;;4952619;28;20987;-45
2021/12/31 00:45:16;;;;;;;3.57;1.90;;;13.90;86.20;;;;;;4955427;28;20469;-46
2021/12/31 00:47:44;;;;;;;4.23;1.83;;;14.00;86.00;;;;;;4948673;28;20603;-46
2021/12/31 00:50:12;;;;;;;2.87;1.77;;;13.90;86.10;;;;;;4954458;28;20565;-46
2021/12/31 00:52:39;;;;;;;3.10;1.97;;;13.90;86.20;;;;;;4965309;28;20537;-45
2021/12/31 00:55:07;;;;;;;3.07;2.50;;;13.90;86.20;;;;;;4952862;28;20448;-46
2021/12/31 00:57:36;;;;;;;2.90;1.90;;;13.90;86.10;;;;;;4959472;28;20458;-46
2021/12/31 01:00:06;;;;;;;5.63;2.03;;;14.00;86.00;;;;;;4949183;28;20529;-46
2021/12/31 01:02:33;;;;;;;2.83;2.10;;;14.00;85.80;;;;;;4957533;28;20461;-47
2021/12/31 01:05:01;;;;;;;5.03;1.63;;;14.00;85.90;;;;;;4951842;28;20460;-46
2021/12/31 01:07:28;;;;;;;3.30;2.27;;;14.00;85.90;;;;;;4953963;28;20465;-46
2021/12/31 01:09:56;;;;;;;2.60;1.73;;;14.00;86.00;;;;;;4953170;28;20450;-47
2021/12/31 01:12:25;;;;;;;3.97;1.87;;;14.00;86.10;;;;;;4952259;28;20490;-46
2021/12/31 01:15:02;;;;;;;5.70;2.33;;;13.90;86.10;;;;;;4955456;28;20459;-47
2021/12/31 01:17:49;;;;;;;3.80;2.27;;;13.90;86.20;;;;;;4952680;28;20450;-46
2021/12/31 01:20:18;;;;;;;5.43;1.97;;;13.90;86.50;;;;;;4968412;28;20509;-47
2021/12/31 01:22:45;;;;;;;4.00;2.40;;;13.90;86.40;;;;;;4953357;28;20509;-46
2021/12/31 01:25:13;;;;;;;8.47;2.33;;;13.90;86.50;;;;;;4950532;28;20470;-46
2021/12/31 01:27:42;;;;;;;3.10;2.77;;;13.90;86.50;;;;;;4968505;28;20478;-46
2021/12/31 01:30:12;;;;;;;2.93;1.80;;;13.80;86.60;;;;;;4955709;28;20455;-46
2021/12/31 01:32:40;;;;;;;4.40;1.80;;;13.80;86.70;;;;;;4951250;28;21242;-46
2021/12/31 01:35:07;;;;;;;4.20;2.40;;;13.80;86.90;;;;;;4952121;28;20988;-46
2021/12/31 01:37:34;;;;;;;3.10;2.07;;;13.80;86.60;;;;;;4951397;28;20467;-46
2021/12/31 01:40:01;;;;;;;4.33;2.27;;;13.80;86.90;;;;;;4960386;28;20475;-46
2021/12/31 01:42:32;;;;;;;2.30;2.10;;;13.80;87.00;;;;;;4953640;28;20467;-46
2021/12/31 01:45:17;;;;;;;4.20;2.53;;;13.80;86.80;;;;;;4953468;28;20463;-47
2021/12/31 01:50:21;;;;;;;6.27;2.50;;;13.80;86.70;;;;;;4949560;28;20552;-46
2021/12/31 01:52:48;;;;;;;3.60;1.97;;;13.80;86.70;;;;;;4955139;28;20491;-46
2021/12/31 01:55:16;;;;;;;6.50;2.90;;;13.80;86.70;;;;;;4947323;28;20470;-46
2021/12/31 01:57:43;;;;;;;5.47;2.33;;;13.80;86.70;;;;;;4946104;28;20467;-46
2021/12/31 02:00:11;;;;;;;11.80;2.70;;;13.80;86.70;;;;;;4950604;28;20473;-46
2021/12/31 02:02:41;;;;;;;5.93;2.30;;;13.70;86.80;;;;;;4947331;28;20549;-46
2021/12/31 02:05:08;;;;;;;5.77;2.60;;;13.70;86.70;;;;;;4943202;28;20475;-46
2021/12/31 02:07:38;;;;;;;2.47;2.27;;;13.70;86.80;;;;;;4947011;28;20479;-46
2021/12/31 02:10:06;;;;;;;2.87;2.17;;;13.70;86.80;;;;;;4965331;28;20498;-46
2021/12/31 02:12:33;;;;;;;4.70;2.87;;;13.70;86.80;;;;;;4947797;28;20486;-46
2021/12/31 02:15:02;;;;;;;5.77;2.30;;;13.70;86.60;;;;;;4944587;28;20455;-46
2021/12/31 02:17:28;;;;;;;6.70;2.53;;;13.70;86.70;;;;;;4951459;28;20812;-46
2021/12/31 02:20:02;;;;;;;4.97;2.30;;;13.70;86.70;;;;;;4948614;28;21829;-46
2021/12/31 02:22:30;;;;;;;3.57;2.60;;;13.70;86.60;;;;;;4949650;28;20474;-46
2021/12/31 02:25:00;;;;;;;3.37;2.20;;;13.70;86.70;;;;;;4948634;28;20469;-46
2021/12/31 02:27:27;;;;;;;4.23;2.30;;;13.70;86.80;;;;;;4951800;28;20463;-46
2021/12/31 02:29:54;;;;;;;4.67;2.37;;;13.70;86.90;;;;;;4965965;28;20765;-46
2021/12/31 02:32:21;;;;;;;4.47;2.50;;;13.60;86.60;;;;;;4948651;28;20508;-46
2021/12/31 02:34:49;;;;;;;3.43;3.13;;;13.60;86.50;;;;;;4950503;28;20502;-46
2021/12/31 02:37:15;;;;;;;2.70;2.43;;;13.60;86.60;;;;;;4949502;28;20466;-46
2021/12/31 02:39:43;;;;;;;4.30;2.63;;;13.70;86.40;;;;;;4950371;28;20471;-46
2021/12/31 02:42:11;;;;;;;7.50;2.53;;;13.70;86.20;;;;;;4951538;28;20470;-46
2021/12/31 02:44:38;;;;;;;3.77;1.90;;;13.70;86.20;;;;;;4948345;28;20493;-46
2021/12/31 02:47:06;;;;;;;2.40;2.20;;;13.70;86.00;;;;;;4953873;28;20469;-46
2021/12/31 02:49:39;;;;;;;3.47;2.20;;;13.70;86.10;;;;;;4950783;28;20459;-46
2021/12/31 02:52:10;;;;;;;13.90;3.00;;;13.70;85.90;;;;;;4967369;28;20462;-46
2021/12/31 02:54:40;;;;;;;3.63;2.50;;;13.70;85.80;;;;;;4946665;28;20503;-46
2021/12/31 02:57:07;;;;;;;4.30;2.13;;;13.70;86.00;;;;;;4964117;28;20557;-46
2021/12/31 02:59:35;;;;;;;4.27;2.13;;;13.70;86.10;;;;;;4948217;28;20463;-46
2021/12/31 03:02:06;;;;;;;5.37;2.47;;;13.70;86.00;;;;;;4951801;28;20459;-46
2021/12/31 03:04:36;;;;;;;3.97;1.97;;;13.60;86.10;;;;;;4949417;28;20462;-46
2021/12/31 03:07:04;;;;;;;3.37;2.27;;;13.60;86.10;;;;;;4951282;28;20459;-46
2021/12/31 03:09:33;;;;;;;2.83;2.27;;;13.60;86.00;;;;;;4950529;28;20474;-46
2021/12/31 03:12:01;;;;;;;6.07;2.47;;;13.60;86.30;;;;;;4949940;28;20466;-46
2021/12/31 03:14:29;;;;;;;4.47;2.30;;;13.60;86.10;;;;;;4945435;28;20491;-46
2021/12/31 03:16:57;;;;;;;7.30;2.87;;;13.60;86.20;;;;;;4964576;28;20474;-46
2021/12/31 03:19:24;;;;;;;5.87;2.70;;;13.60;86.00;;;;;;4949220;28;20956;-46
2021/12/31 03:21:51;;;;;;;1.73;1.63;;;13.60;86.20;;;;;;4947691;28;20879;-46
2021/12/31 03:24:17;;;;;;;10.30;2.30;;;13.60;86.10;;;;;;4960751;28;20511;-46
2021/12/31 03:26:44;;;;;;;3.70;2.43;;;13.60;85.90;;;;;;4947448;28;20483;-45
2021/12/31 03:29:11;;;;;;;10.47;3.47;;;13.70;85.90;;;;;;4949736;28;20470;-45
2021/12/31 03:31:37;;;;;;;3.03;2.23;;;13.70;85.90;;;;;;4948615;28;20473;-45
2021/12/31 03:34:04;;;;;;;5.23;2.83;;;13.70;85.80;;;;;;4948151;28;20584;-44
2021/12/31 03:36:31;;;;;;;2.70;2.50;;;13.60;86.00;;;;;;4946730;28;20468;-44
2021/12/31 03:38:58;;;;;;;6.47;3.73;;;13.60;85.80;;;;;;4949563;28;20467;-44
2021/12/31 03:41:25;;;;;;;4.43;2.77;;;13.60;86.00;;;;;;4948048;28;20470;-46
2021/12/31 03:43:52;;;;;;;2.93;2.57;;;13.70;85.90;;;;;;4948209;28;20830;-46
2021/12/31 03:46:19;;;;;;;2.70;2.37;;;13.70;86.00;;;;;;4951767;28;20555;-46
2021/12/31 03:48:46;;;;;;;3.10;2.40;;;13.60;85.70;;;;;;4948485;28;20478;-45
2021/12/31 03:51:13;;;;;;;5.90;2.60;;;13.60;85.90;;;;;;4948796;28;20470;-46
2021/12/31 03:53:39;;;;;;;2.93;2.40;;;13.60;86.00;;;;;;4961583;28;20494;-46
2021/12/31 03:56:06;;;;;;;3.27;2.77;;;13.60;86.00;;;;;;4964360;28;20463;-46
2021/12/31 03:58:33;;;;;;;4.60;2.87;;;13.60;86.30;;;;;;4949755;28;20466;-46
2021/12/31 04:01:00;;;;;;;2.70;2.50;;;13.60;86.00;;;;;;4947781;28;20461;-46
2021/12/31 04:03:27;;;;;;;3.20;2.90;;;13.60;85.90;;;;;;4949083;28;20925;-46
2021/12/31 04:05:53;;;;;;;2.90;2.20;;;13.60;86.00;;;;;;4949295;28;20471;-46
2021/12/31 04:08:20;;;;;;;2.33;2.13;;;13.60;86.00;;;;;;4942649;28;20472;-46
2021/12/31 04:10:47;;;;;;;2.80;2.30;;;13.60;86.00;;;;;;4952235;28;21277;-46
2021/12/31 04:13:14;;;;;;;5.03;2.67;;;13.60;85.90;;;;;;4950914;28;20490;-46
2021/12/31 04:15:41;;;;;;;4.63;2.40;;;13.60;85.80;;;;;;4952346;28;20489;-46
2021/12/31 04:18:08;;;;;;;7.77;3.50;;;13.60;85.80;;;;;;4952865;28;21082;-46
2021/12/31 04:20:41;;;;;;;2.53;2.30;;;13.60;85.50;;;;;;4952009;28;20462;-46
2021/12/31 04:23:15;;;;;;;5.07;2.80;;;13.60;85.50;;;;;;4954123;28;20860;-46
2021/12/31 04:25:42;;;;;;;3.63;2.03;;;13.60;85.40;;;;;;4952645;28;20471;-46
2021/12/31 04:28:09;;;;;;;6.23;3.57;;;13.50;85.50;;;;;;4952241;28;20562;-46
2021/12/31 04:30:36;;;;;;;2.67;2.47;;;13.50;85.60;;;;;;4951497;28;20930;-46
2021/12/31 04:33:03;;;;;;;3.03;2.83;;;13.40;85.90;;;;;;4950567;28;20573;-46
2021/12/31 04:35:30;;;;;;;2.63;2.43;;;13.50;85.70;;;;;;4951760;28;20465;-46
2021/12/31 04:37:56;;;;;;;3.73;2.70;;;13.50;85.60;;;;;;4951038;28;20459;-46
2021/12/31 04:40:23;;;;;;;2.73;2.53;;;13.50;85.60;;;;;;4952047;28;20466;-46
2021/12/31 04:42:50;;;;;;;5.37;2.70;;;13.50;85.40;;;;;;4967514;28;21062;-45
2021/12/31 04:45:17;;;;;;;3.07;2.27;;;13.40;85.60;;;;;;4952019;28;20472;-46
2021/12/31 04:47:44;;;;;;;3.60;2.60;;;13.40;85.80;;;;;;4950098;28;20926;-45
2021/12/31 04:50:12;;;;;;;3.93;2.83;;;13.40;86.10;;;;;;4952228;28;20471;-45
2021/12/31 04:52:40;;;;;;;5.80;3.03;;;13.40;86.00;;;;;;4952031;28;20474;-45
2021/12/31 04:55:07;;;;;;;2.67;2.40;;;13.40;85.80;;;;;;4953226;28;20496;-45
2021/12/31 04:57:34;;;;;;;2.93;2.70;;;13.40;85.80;;;;;;4964706;28;20979;-46
2021/12/31 05:00:01;;;;;;;3.03;2.70;;;13.30;86.00;;;;;;4953215;28;20465;-46
2021/12/31 05:02:27;;;;;;;5.97;2.80;;;13.30;86.00;;;;;;4952159;28;20795;-45
2021/12/31 05:04:54;;;;;;;2.20;2.00;;;13.40;85.80;;;;;;4955104;28;20474;-46
2021/12/31 05:07:21;;;;;;;5.97;2.63;;;13.40;85.50;;;;;;4954136;28;20470;-46
2021/12/31 05:09:48;;;;;;;3.53;2.47;;;13.30;85.70;;;;;;4950000;28;20497;-46
2021/12/31 05:12:20;;;;;;;3.87;3.40;;;13.20;85.90;;;;;;4966710;28;20835;-46
2021/12/31 05:14:47;;;;;;;6.27;3.17;;;13.30;85.80;;;;;;4949356;28;20499;-46
2021/12/31 05:17:14;;;;;;;2.80;2.50;;;13.20;85.90;;;;;;4953244;28;20482;-46
2021/12/31 05:19:43;;;;;;;3.30;2.63;;;13.20;85.80;;;;;;4949708;28;20463;-47
2021/12/31 05:22:12;;;;;;;5.30;4.00;;;13.20;85.80;;;;;;4958013;28;20694;-46
2021/12/31 05:24:39;;;;;;;3.70;2.47;;;13.20;85.80;;;;;;4948978;28;20871;-46
2021/12/31 05:27:06;;;;;;;4.63;3.10;;;13.20;85.90;;;;;;4950293;28;20470;-46
2021/12/31 05:29:34;;;;;;;3.50;3.07;;;13.10;86.10;;;;;;4951955;28;20466;-46
2021/12/31 05:32:02;;;;;;;4.60;2.67;;;13.00;86.40;;;;;;4948953;28;20463;-46
2021/12/31 05:34:29;;;;;;;2.40;2.23;;;13.00;86.20;;;;;;4954037;28;20521;-46
2021/12/31 05:36:56;;;;;;;3.20;2.60;;;12.90;86.50;;;;;;4932001;28;20467;-46
2021/12/31 05:39:25;;;;;;;7.90;4.13;;;12.90;86.30;;;;;;4948561;28;20463;-46
2021/12/31 05:41:52;;;;;;;3.63;2.70;;;12.80;86.50;;;;;;4950239;28;20471;-46
2021/12/31 05:44:20;;;;;;;6.07;3.23;;;12.80;86.60;;;;;;4937262;28;20470;-46
2021/12/31 05:46:50;;;;;;;5.50;2.80;;;12.70;86.60;;;;;;4949843;28;20987;-46
2021/12/31 05:49:17;;;;;;;8.93;3.27;;;12.70;86.60;;;;;;4950234;28;21007;-46
2021/12/31 05:51:44;;;;;;;3.83;3.40;;;12.60;86.60;;;;;;4962591;28;20470;-45
2021/12/31 05:54:11;;;;;;;3.60;2.63;;;12.60;86.60;;;;;;4950104;28;21174;-46
2021/12/31 05:56:38;;;;;;;3.67;3.30;;;12.60;86.60;;;;;;4954676;28;20466;-46
2021/12/31 05:59:04;;;;;;;5.50;3.77;;;12.50;86.60;;;;;;4958594;28;20459;-46
2021/12/31 06:01:32;;;;;;;4.83;3.80;;;12.40;86.70;;;;;;4948186;28;20470;-45
2021/12/31 06:03:59;;;;;;;5.23;3.60;;;12.40;86.70;;;;;;4950295;28;20469;-46
2021/12/31 06:06:26;;;;;;;6.03;4.43;;;12.40;86.70;;;;;;4949095;28;20565;-46
2021/12/31 06:08:53;;;;;;;8.33;4.60;;;12.30;86.70;;;;;;4951200;28;20990;-46
2021/12/31 06:11:20;;;;;;;6.07;4.60;;;12.30;86.70;;;;;;4953214;28;20543;-46
2021/12/31 06:13:54;;;;;;;6.63;5.23;;;12.20;86.80;;;;;;4950375;28;20875;-46
2021/12/31 06:16:23;;;;;;;6.47;4.70;;;12.20;86.70;;;;;;4947921;28;20471;-46
2021/12/31 06:18:50;;;;;;;5.17;4.03;;;12.10;86.80;;;;;;4952025;28;20489;-45
2021/12/31 06:21:17;;;;;;;4.90;4.40;;;12.10;86.80;;;;;;4969058;28;20842;-46
2021/12/31 06:23:45;;;;;;;6.80;4.37;;;12.10;86.90;;;;;;4950174;28;20840;-46
2021/12/31 06:26:28;;;;;;;6.60;4.10;;;12.00;86.90;;;;;;4965402;28;20478;-46
2021/12/31 06:28:55;;;;;;;5.70;4.00;;;12.00;86.90;;;;;;4951670;28;20459;-46
2021/12/31 06:31:23;;;;;;;4.70;3.60;;;11.90;86.90;;;;;;4952019;28;20467;-46
2021/12/31 06:33:50;;;;;;;4.13;3.27;;;11.90;87.00;;;;;;4950288;28;20487;-46
2021/12/31 06:36:17;;;;;;;3.63;3.27;;;11.90;87.00;;;;;;4952482;28;20461;-46
2021/12/31 06:38:44;;;;;;;5.50;3.00;;;11.80;87.00;;;;;;4950953;28;20474;-45
2021/12/31 06:41:11;;;;;;;6.20;3.23;;;11.80;87.10;;;;;;4952105;28;20465;-45
2021/12/31 06:43:38;;;;;;;3.30;3.00;;;11.70;87.20;;;;;;4950348;28;20787;-46
2021/12/31 06:46:05;;;;;;;4.63;3.00;;;11.70;87.20;;;;;;4961970;28;20885;-46
2021/12/31 06:48:32;;;;;;;4.10;2.97;;;11.70;87.10;;;;;;4955626;28;20482;-45
2021/12/31 06:50:58;;;;;;;3.93;3.20;;;11.60;87.10;;;;;;4950687;28;20471;-46
2021/12/31 06:53:25;;;;;;;4.13;3.73;;;11.60;87.20;;;;;;4955502;28;20463;-46
2021/12/31 06:55:52;;;;;;;4.03;3.30;;;11.60;87.10;;;;;;4947340;28;20451;-46
2021/12/31 06:58:19;;;;;;;3.20;2.90;;;11.60;87.00;;;;;;4951081;28;20465;-45
2021/12/31 07:00:46;;;;;;;4.73;2.70;;;11.50;87.00;;;;;;4949981;28;20467;-45
2021/12/31 07:03:13;;;;;;;4.23;2.90;;;11.50;87.10;;;;;;4954179;28;20454;-45
2021/12/31 07:05:42;;;;;;;6.50;3.00;;;11.50;87.20;;;;;;4949672;28;20463;-46
2021/12/31 07:08:10;;;;;;;3.27;2.97;;;11.40;87.10;;;;;;4951540;28;20549;-46
2021/12/31 07:10:37;;;;;;;7.30;3.20;;;11.40;87.30;;;;;;4964510;28;20474;-46
2021/12/31 07:13:10;;;;;;;5.80;3.37;;;11.40;87.30;;;;;;4955400;28;20956;-45
2021/12/31 07:15:41;;;;;;;3.13;2.83;;;11.30;87.40;;;;;;4949904;28;20913;-46
2021/12/31 07:18:08;;;;;;;4.50;3.53;;;11.30;87.40;;;;;;4948051;28;20455;-45
2021/12/31 07:20:36;;;;;;;3.80;3.13;;;11.20;87.40;;;;;;4963584;28;20447;-46
2021/12/31 07:23:16;;;;;;;7.40;3.50;;;11.20;87.50;;;;;;4951993;28;20479;-45
2021/12/31 07:25:45;;;;;;;8.70;3.03;;;11.20;87.50;;;;;;4950040;28;20472;-45
2021/12/31 07:28:13;;;;;;;3.13;2.93;;;11.10;87.60;;;;;;4952117;28;20463;-46
2021/12/31 07:30:41;;;;;;;3.93;2.77;;;11.10;87.70;;;;;;4949171;28;20462;-46
2021/12/31 07:33:15;;;;;;;4.30;3.23;;;11.10;87.70;;;;;;4963857;28;20459;-45
2021/12/31 07:35:42;;;;;;;3.60;3.20;;;11.00;87.70;;;;;;4946343;28;20485;-46
2021/12/31 07:38:17;;;;;;;3.30;3.00;;;11.00;87.70;;;;;;4952418;28;21053;-45
2021/12/31 07:40:45;;;;;;;8.00;3.23;;;11.00;87.70;;;;;;4950084;28;20796;-46
2021/12/31 07:43:13;;;;;;;6.80;2.87;;;10.90;87.80;;;;;;4962105;28;20466;-46
2021/12/31 07:45:40;;;;;;;4.10;3.23;;;10.90;87.90;;;;;;4951513;28;20462;-46
2021/12/31 07:48:07;;;;;;;5.30;3.13;;;10.90;87.90;;;;;;4945346;28;21399;-46
2021/12/31 07:50:36;;;;;;;2.80;2.60;;;10.90;87.80;;;;;;4948546;28;20491;-46
2021/12/31 07:53:04;;;;;;;6.67;3.50;;;10.90;88.00;;;;;;4950696;28;21134;-46
2021/12/31 07:55:31;;;;;;;4.20;3.77;;;10.80;88.10;;;;;;4935174;28;20501;-46
2021/12/31 07:57:58;;;;;;;5.80;4.80;;;10.80;88.10;;;;;;4954089;28;20930;-46
2021/12/31 08:00:25;;;;;;;7.43;6.50;;;10.80;88.10;;;;;;4951834;28;20976;-45
2021/12/31 08:02:56;;;;;;;7.73;5.23;;;10.90;88.20;;;;;;4949985;28;21873;-46
2021/12/31 08:05:24;;;;;;;5.53;4.30;;;10.90;88.40;;;;;;4951313;28;20490;-45
2021/12/31 08:07:52;;;;;;;5.00;3.87;;;10.90;88.80;;;;;;4955674;28;20459;-45
2021/12/31 08:10:19;;;;;;;6.07;3.70;;;10.90;89.20;;;;;;4975314;28;20541;-46
2021/12/31 08:13:10;;;;;;;4.30;3.13;;;10.90;89.30;;;;;;4941677;28;20976;-46
2021/12/31 08:15:37;;;;;;;3.97;3.57;;;10.90;89.40;;;;;;4953498;28;20494;-46
2021/12/31 08:18:05;;;;;;;3.83;3.53;;;10.90;89.40;;;;;;4952801;28;20709;-46
2021/12/31 08:20:32;;;;;;;5.87;3.40;;;10.90;89.40;;;;;;4952708;28;20469;-45
2021/12/31 08:23:06;;;;;;;5.63;5.00;;;10.90;89.50;;;;;;4947324;28;20492;-46
2021/12/31 08:25:35;;;;;;;4.10;3.70;;;10.90;89.50;;;;;;4951092;28;20477;-46
2021/12/31 08:28:03;;;;;;;5.03;4.07;;;10.90;89.50;;;;;;4953428;28;20458;-46
2021/12/31 08:30:30;;;;;;;3.80;3.43;;;10.90;89.50;;;;;;4953720;28;20814;-46
2021/12/31 08:32:57;;;;;;;4.57;3.57;;;10.90;89.70;;;;;;4952148;28;21643;-46
2021/12/31 08:35:27;;;;;;;4.80;3.57;;;10.90;89.70;;;;;;4963062;28;20490;-47
2021/12/31 08:37:54;;;;;;;3.60;3.27;;;11.00;89.70;;;;;;4951025;28;20458;-46
2021/12/31 08:40:21;;;;;;;3.67;3.00;;;11.00;89.70;;;;;;4960426;28;20470;-46
2021/12/31 08:42:48;;;;;;;4.10;3.70;;;11.00;89.70;;;;;;4953283;28;20500;-46
2021/12/31 08:45:29;;;;;;;7.90;3.40;;;11.10;89.80;;;;;;4948402;28;20463;-46
2021/12/31 08:47:57;;;;;;;8.40;3.70;;;11.10;89.80;;;;;;4967932;28;20968;-46
2021/12/31 08:50:25;;;;;;;5.07;3.70;;;11.20;89.80;;;;;;4952475;28;20478;-47
2021/12/31 08:52:52;;;;;;;4.70;3.27;;;11.20;89.80;;;;;;4949806;28;20466;-46
2021/12/31 08:55:19;;;;;;;4.80;2.93;;;11.30;89.80;;;;;;4953554;28;20870;-46
2021/12/31 08:57:45;;;;;;;5.00;3.40;;;11.30;89.80;;;;;;4951126;28;20853;-46
2021/12/31 09:00:13;;;;;;;5.70;3.80;;;11.30;89.80;;;;;;4949807;28;20462;-46
2021/12/31 09:02:39;;;;;;;4.00;3.40;;;11.30;89.80;;;;;;4948580;28;20740;-46
2021/12/31 09:05:08;;;;;;;5.80;2.70;;;11.30;89.80;;;;;;4946631;28;20477;-46
2021/12/31 09:07:35;;;;;;;7.90;3.43;;;11.40;89.80;;;;;;4948821;28;20474;-46
2021/12/31 09:10:02;;;;;;;4.80;3.90;;;11.40;89.80;;;;;;4927000;28;20471;-46
2021/12/31 09:12:29;;;;;;;4.00;2.93;;;11.40;89.80;;;;;;4928182;28;20475;-46
2021/12/31 09:14:56;;;;;;;3.00;2.43;;;11.50;89.80;;;;;;4952734;28;20493;-46
2021/12/31 09:17:23;;;;;;;5.40;3.20;;;11.50;89.80;;;;;;4954929;28;20462;-46
2021/12/31 09:19:50;;;;;;;4.60;3.37;;;11.50;89.80;;;;;;4953543;28;20955;-46
2021/12/31 09:22:17;;;;;;;4.03;2.80;;;11.60;89.80;;;;;;4951226;28;20463;-46
2021/12/31 09:24:45;;;;;;;3.90;3.50;;;11.70;89.80;;;;;;4954909;28;20541;-46
2021/12/31 09:27:12;;;;;;;4.20;2.67;;;11.80;89.80;;;;;;4965601;28;20491;-46
2021/12/31 09:29:39;;;;;;;3.70;2.93;;;11.80;89.80;;;;;;4952577;28;20828;-46
2021/12/31 09:32:06;;;;;;;4.00;2.87;;;12.00;89.80;;;;;;4950422;28;20458;-46
2021/12/31 09:34:34;;;;;;;7.30;3.40;;;12.00;89.80;;;;;;4962995;28;20494;-46
2021/12/31 09:37:01;;;;;;;4.60;3.30;;;12.10;89.80;;;;;;4950695;28;20463;-46
2021/12/31 09:39:28;;;;;;;5.20;3.10;;;12.20;89.80;;;;;;4947983;28;20460;-46
2021/12/31 09:41:54;;;;;;;5.93;3.17;;;12.30;89.80;;;;;;4949810;28;21044;-46
2021/12/31 09:44:22;;;;;;;3.37;2.80;;;12.40;89.80;;;;;;4952139;28;20505;-46
2021/12/31 09:46:49;;;;;;;3.47;2.73;;;12.60;89.10;;;;;;4952330;28;20470;-46
2021/12/31 09:49:17;;;;;;;4.57;2.70;;;12.70;88.20;;;;;;4949814;28;20615;-46
2021/12/31 09:51:44;;;;;;;3.80;2.77;;;12.80;88.30;;;;;;4942120;28;20462;-46
2021/12/31 09:54:12;;;;;;;4.33;2.60;;;12.90;87.50;;;;;;4969182;28;20473;-46
2021/12/31 09:56:40;;;;;;;5.53;3.47;;;13.10;86.20;;;;;;4945699;28;20466;-47
2021/12/31 09:59:08;;;;;;;3.63;2.87;;;13.20;85.40;;;;;;4947794;28;20473;-46
2021/12/31 10:01:46;;;;;;;2.53;2.30;;;13.30;85.70;;;;;;4948206;28;20822;-46
2021/12/31 10:04:13;;;;;;;3.23;2.40;;;13.40;84.20;;;;;;4959513;28;20968;-49
2021/12/31 10:07:11;;;;;;;5.50;3.40;;;13.50;84.10;;;;;;4957754;28;20451;-49
2021/12/31 10:09:40;;;;;;;2.73;2.43;;;13.60;83.60;;;;;;4965404;28;20451;-49
2021/12/31 10:12:12;;;;;;;2.43;1.90;;;13.60;83.20;;;;;;4952925;28;20454;-49
2021/12/31 10:14:40;;;;;;;4.17;2.63;;;13.60;83.40;;;;;;4954444;28;20482;-49
2021/12/31 10:17:08;;;;;;;5.50;2.80;;;13.70;83.20;;;;;;4969038;28;21040;-50
2021/12/31 10:19:35;;;;;;;3.67;2.80;;;13.70;83.40;;;;;;4952010;28;20487;-48
2021/12/31 10:22:03;;;;;;;3.33;3.00;;;13.70;83.10;;;;;;4968805;28;20538;-49
2021/12/31 10:24:40;;;;;;;4.80;3.30;;;13.80;83.20;;;;;;4953074;28;20490;-49
2021/12/31 10:27:09;;;;;;;4.13;2.30;;;13.80;82.90;;;;;;4958484;28;20484;-49
2021/12/31 10:30:03;;;;;;;5.13;2.33;;;13.90;82.40;;;;;;4955691;28;20939;-49
2021/12/31 10:32:32;;;;;;;2.57;1.80;;;13.90;81.90;;;;;;4965145;28;20455;-49
2021/12/31 10:35:14;;;;;;;3.97;3.30;;;13.90;82.00;;;;;;4967320;28;20528;-49
2021/12/31 10:37:49;;;;;;;3.10;2.50;;;13.90;81.70;;;;;;4951255;28;21002;-49
2021/12/31 10:40:28;;;;;;;3.47;2.70;;;13.90;81.70;;;;;;4953126;28;20466;-49
2021/12/31 10:43:08;;;;;;;6.30;2.87;;;13.90;81.10;;;;;;4949577;28;20450;-49
2021/12/31 10:45:35;;;;;;;2.67;2.47;;;13.90;81.50;;;;;;4953225;28;20463;-49
2021/12/31 10:48:10;;;;;;;4.63;2.10;;;13.90;81.50;;;;;;4952676;28;20447;-49
2021/12/31 10:50:50;;;;;;;2.47;2.27;;;13.90;81.10;;;;;;4952298;28;20490;-49
2021/12/31 10:53:32;;;;;;;3.73;2.53;;;13.90;81.40;;;;;;4951126;28;20459;-49
2021/12/31 10:56:06;;;;;;;2.20;2.00;;;13.90;81.50;;;;;;4958197;28;20497;-49
2021/12/31 10:58:33;;;;;;;8.10;4.80;;;13.90;81.60;;;;;;4946668;28;20509;-49
2021/12/31 11:01:04;;;;;;;4.50;3.50;;;14.00;81.30;;;;;;4952583;28;20459;-49
2021/12/31 11:03:33;;;;;;;2.20;2.00;;;13.90;81.20;;;;;;4949089;28;20466;-49
2021/12/31 11:06:04;;;;;;;2.43;2.20;;;14.00;81.30;;;;;;4955157;28;20554;-49
2021/12/31 11:08:32;;;;;;;3.93;2.17;;;13.90;81.20;;;;;;4952053;28;20481;-49
2021/12/31 11:11:01;;;;;;;6.13;2.60;;;14.00;81.20;;;;;;4950686;28;20463;-49
2021/12/31 11:13:30;;;;;;;5.03;2.17;;;14.00;81.40;;;;;;4940441;28;20479;-49
2021/12/31 11:15:59;;;;;;;3.50;2.50;;;14.00;81.50;;;;;;4967500;28;20573;-49
2021/12/31 11:18:26;;;;;;;2.30;2.03;;;14.00;81.30;;;;;;4955349;28;20893;-49
2021/12/31 11:21:05;;;;;;;2.77;2.37;;;14.00;81.20;;;;;;4953402;28;20442;-49
2021/12/31 11:23:32;;;;;;;2.87;2.30;;;14.10;80.80;;;;;;4964026;28;20853;-49
2021/12/31 11:26:11;;;;;;;2.80;2.50;;;14.00;80.90;;;;;;4950404;28;20550;-49
2021/12/31 11:28:39;;;;;;;3.43;2.57;;;14.00;81.00;;;;;;4949760;28;20812;-49
2021/12/31 11:31:26;;;;;;;2.83;2.63;;;14.00;81.20;;;;;;4956429;28;20446;-49
2021/12/31 11:34:00;;;;;;;3.00;2.33;;;13.90;81.60;;;;;;4969023;28;21039;-49
2021/12/31 11:37:02;;;;;;;3.07;2.10;;;14.00;81.20;;;;;;4963825;28;20490;-49
2021/12/31 11:39:32;;;;;;;3.30;2.40;;;14.00;81.10;;;;;;4918873;28;20462;-49
2021/12/31 11:42:05;;;;;;;4.13;2.20;;;14.00;81.20;;;;;;4951406;28;20447;-49
2021/12/31 11:44:34;;;;;;;2.87;2.30;;;14.00;80.60;;;;;;4949970;28;20455;-49
2021/12/31 11:47:16;;;;;;;3.23;2.90;;;13.90;81.10;;;;;;4965680;28;20459;-49
2021/12/31 11:49:45;;;;;;;2.50;2.30;;;13.90;81.10;;;;;;4952828;28;20453;-49
2021/12/31 11:52:22;;;;;;;4.43;2.20;;;13.90;81.10;;;;;;4938344;28;20483;-49
2021/12/31 11:55:18;;;;;;;2.53;2.33;;;13.80;81.40;;;;;;4955032;28;20525;-49
2021/12/31 11:57:46;;;;;;;2.67;2.47;;;13.80;81.20;;;;;;4953668;28;20458;-49
2021/12/31 12:00:28;;;;;;;2.87;2.60;;;13.80;80.90;;;;;;4950435;28;20831;-49
2021/12/31 12:02:55;;;;;;;2.63;2.07;;;13.80;80.90;;;;;;4953571;28;20451;-49
2021/12/31 12:05:38;;;;;;;2.67;2.47;;;13.80;80.50;;;;;;4947139;28;20957;-49
2021/12/31 12:08:24;;;;;;;2.43;2.23;;;13.80;80.90;;;;;;4947920;28;20872;-49
2021/12/31 12:10:51;;;;;;;4.50;2.60;;;13.80;81.40;;;;;;4952559;28;20443;-49
2021/12/31 12:13:23;;;;;;;3.73;2.80;;;13.80;80.70;;;;;;4946748;28;20461;-49
2021/12/31 12:15:50;;;;;;;3.03;2.73;;;13.80;81.00;;;;;;4947072;28;20494;-49
2021/12/31 12:18:51;;;;;;;2.67;2.47;;;13.80;81.10;;;;;;4934547;28;20947;-49
2021/12/31 12:21:35;;;;;;;6.97;4.70;;;13.80;81.60;;;;;;4941156;28;20822;-49
2021/12/31 12:24:02;;;;;;;8.00;5.93;;;13.80;81.60;;;;;;4947982;28;20475;-49
2021/12/31 12:26:29;;;;;;;3.53;3.13;;;13.80;81.80;;;;;;4949557;28;20474;-49
2021/12/31 12:28:56;;;;;;;2.77;2.27;;;13.80;81.30;;;;;;4953094;28;20464;-49
2021/12/31 12:31:23;;;;;;;5.27;4.00;;;13.80;81.50;;;;;;4951411;28;20814;-49
2021/12/31 12:33:58;;;;;;;5.80;3.60;;;13.80;81.80;;;;;;4965779;28;20944;-48
2021/12/31 12:36:25;;;;;;;3.43;3.13;;;13.80;82.10;;;;;;4947830;28;20494;-49
2021/12/31 12:39:06;;;;;;;4.63;4.27;;;13.90;82.10;;;;;;4946959;28;20467;-49
2021/12/31 12:41:33;;;;;;;3.73;3.07;;;13.90;82.20;;;;;;4954948;28;20949;-50
2021/12/31 12:44:07;;;;;;;5.13;3.13;;;13.90;82.00;;;;;;4969261;28;20961;-50
2021/12/31 12:46:36;;;;;;;9.40;3.20;;;13.90;82.00;;;;;;4952533;28;20460;-50
2021/12/31 12:49:11;;;;;;;3.97;3.03;;;13.90;82.10;;;;;;4953624;28;20490;-50
2021/12/31 12:51:42;;;;;;;4.43;2.90;;;13.90;82.00;;;;;;4946786;28;20865;-50
2021/12/31 12:54:11;;;;;;;3.40;3.00;;;14.00;81.80;;;;;;4951433;28;20467;-50
2021/12/31 12:56:38;;;;;;;3.30;3.00;;;14.00;81.60;;;;;;4948443;28;20661;-50
2021/12/31 12:59:05;;;;;;;3.30;3.07;;;14.00;81.60;;;;;;4947555;28;20960;-50